Time;durP1;ratioP1;P1;durP2;ratioP2;P2;SDS_P1;SDS_P2;PMS_P1;PMS_P2;Temp;Humidity;BMP_temperature;BMP_pressure;BME280_temperature;BME280_humidity;BME280_pressure;Samples;Min_cycle;Max_cycle;Signal;HPM_P1;HPM_P2
2023/03/31 00:01:32;;;;;;;20.33;3.53;;;;;;;;;;4980654;28;101841;-76
2023/03/31 00:04:03;;;;;;;15.75;2.70;;;;;;;;;;4975196;28;99959;-76
2023/03/31 00:06:36;;;;;;;22.90;3.78;;;;;;;;;;4990411;28;98772;-77
2023/03/31 00:09:23;;;;;;;23.65;3.42;;;;;;;;;;4981159;28;99781;-77
2023/03/31 00:11:50;;;;;;;15.93;3.78;;;;;;;;;;4992987;28;99762;-76
2023/03/31 00:14:17;;;;;;;18.92;3.78;;;;;;;;;;4987915;28;99196;-76
2023/03/31 00:16:44;;;;;;;20.33;3.30;;;;;;;;;;4985738;28;100896;-76
2023/03/31 00:19:16;;;;;;;16.27;2.97;;;;;;;;;;4978250;28;98518;-76
2023/03/31 00:21:44;;;;;;;19.17;3.25;;;;;;;;;;4978168;28;99260;-76
2023/03/31 00:24:13;;;;;;;23.40;4.22;;;;;;;;;;4980926;28;100272;-78
2023/03/31 00:26:40;;;;;;;14.60;3.08;;;;;;;;;;4993792;28;98743;-77
2023/03/31 00:29:07;;;;;;;15.27;2.63;;;;;;;;;;4982142;28;99184;-76
2023/03/31 00:31:34;;;;;;;15.70;3.08;;;;;;;;;;4968079;28;99455;-76
2023/03/31 00:34:01;;;;;;;14.68;2.88;;;;;;;;;;4976137;28;97784;-77
2023/03/31 00:36:28;;;;;;;20.20;3.15;;;;;;;;;;4968448;28;100479;-77
2023/03/31 00:38:58;;;;;;;18.13;3.30;;;;;;;;;;4980400;28;98715;-77
2023/03/31 00:41:25;;;;;;;19.25;2.72;;;;;;;;;;4972047;28;99618;-77
2023/03/31 00:44:11;;;;;;;18.27;3.80;;;;;;;;;;5000188;28;100853;-76
2023/03/31 00:46:44;;;;;;;18.88;2.85;;;;;;;;;;4988165;28;98743;-76
2023/03/31 00:49:19;;;;;;;15.32;3.00;;;;;;;;;;4989081;28;99156;-76
2023/03/31 00:51:47;;;;;;;20.33;3.55;;;;;;;;;;4987773;28;99506;-77
2023/03/31 00:54:14;;;;;;;17.23;2.92;;;;;;;;;;4990165;28;98549;-77
2023/03/31 00:56:41;;;;;;;14.80;2.53;;;;;;;;;;4932438;28;1135405;-76
2023/03/31 00:59:10;;;;;;;11.50;2.60;;;;;;;;;;4985966;28;98282;-77
2023/03/31 01:01:38;;;;;;;20.00;3.70;;;;;;;;;;4983512;28;100424;-77
2023/03/31 01:04:06;;;;;;;10.27;2.30;;;;;;;;;;4976738;28;99647;-76
2023/03/31 01:06:33;;;;;;;13.98;3.17;;;;;;;;;;4976453;28;100028;-76
2023/03/31 01:09:02;;;;;;;18.15;3.00;;;;;;;;;;4983641;28;99894;-75
2023/03/31 01:11:29;;;;;;;15.57;3.63;;;;;;;;;;4973539;28;99739;-77
2023/03/31 01:13:56;;;;;;;13.52;3.08;;;;;;;;;;4981751;28;98636;-76
2023/03/31 01:16:23;;;;;;;18.42;4.22;;;;;;;;;;4990971;28;99366;-76
2023/03/31 01:18:49;;;;;;;12.68;2.67;;;;;;;;;;4988519;28;98915;-76
2023/03/31 01:21:31;;;;;;;12.60;3.00;;;;;;;;;;4987020;28;100204;-76
2023/03/31 01:24:03;;;;;;;13.20;2.88;;;;;;;;;;4979469;28;99549;-76
2023/03/31 01:26:42;;;;;;;13.98;2.55;;;;;;;;;;4972460;28;99038;-75
2023/03/31 01:29:11;;;;;;;11.90;2.30;;;;;;;;;;4991368;28;99701;-76
2023/03/31 01:31:44;;;;;;;9.88;2.58;;;;;;;;;;4979023;28;100170;-76
2023/03/31 01:34:29;;;;;;;16.05;3.17;;;;;;;;;;4980153;28;98582;-77
2023/03/31 01:37:14;;;;;;;15.38;3.17;;;;;;;;;;4987496;28;99626;-76
2023/03/31 01:39:57;;;;;;;13.30;2.97;;;;;;;;;;4979481;28;99531;-76
2023/03/31 01:42:35;;;;;;;15.55;3.05;;;;;;;;;;4980315;28;100232;-77
2023/03/31 01:45:02;;;;;;;18.60;3.28;;;;;;;;;;4986192;28;100524;-77
2023/03/31 01:47:39;;;;;;;13.65;4.03;;;;;;;;;;4987013;28;100179;-76
2023/03/31 01:50:15;;;;;;;17.52;3.35;;;;;;;;;;4984389;28;99297;-77
2023/03/31 01:52:45;;;;;;;10.10;3.55;;;;;;;;;;4980508;28;100213;-77
2023/03/31 01:55:17;;;;;;;14.77;3.72;;;;;;;;;;4985765;28;98829;-76
2023/03/31 01:57:46;;;;;;;13.27;3.65;;;;;;;;;;4988326;28;100308;-76
2023/03/31 02:00:14;;;;;;;13.77;3.33;;;;;;;;;;4985163;28;99452;-77
2023/03/31 02:02:50;;;;;;;14.80;3.42;;;;;;;;;;4991167;28;100207;-78
2023/03/31 02:05:21;;;;;;;10.02;3.45;;;;;;;;;;4987179;28;99661;-77
2023/03/31 02:07:56;;;;;;;13.25;3.08;;;;;;;;;;4988004;28;98675;-76
2023/03/31 02:10:24;;;;;;;11.63;2.65;;;;;;;;;;4985049;28;99478;-76
2023/03/31 02:12:50;;;;;;;12.43;2.95;;;;;;;;;;4987329;28;102040;-76
2023/03/31 02:15:22;;;;;;;12.27;3.47;;;;;;;;;;4987331;28;97854;-76
2023/03/31 02:17:53;;;;;;;19.42;4.18;;;;;;;;;;4990373;28;98517;-78
2023/03/31 02:20:21;;;;;;;13.70;3.35;;;;;;;;;;4986359;28;99470;-76
2023/03/31 02:22:54;;;;;;;17.65;3.95;;;;;;;;;;4983787;28;100749;-76
2023/03/31 02:25:22;;;;;;;13.55;3.25;;;;;;;;;;4990444;28;101359;-79
2023/03/31 02:27:52;;;;;;;17.83;3.20;;;;;;;;;;4975512;28;98629;-78
2023/03/31 02:30:18;;;;;;;22.15;4.03;;;;;;;;;;4981623;28;100261;-78
2023/03/31 02:32:45;;;;;;;12.98;3.00;;;;;;;;;;4991661;28;99262;-77
2023/03/31 02:35:14;;;;;;;15.38;3.20;;;;;;;;;;4986243;28;98656;-78
2023/03/31 02:37:41;;;;;;;14.77;3.13;;;;;;;;;;4992169;28;99241;-77
2023/03/31 02:40:10;;;;;;;15.90;3.10;;;;;;;;;;4991431;28;98719;-77
2023/03/31 02:42:40;;;;;;;17.90;4.10;;;;;;;;;;4989416;28;98584;-77
2023/03/31 02:45:27;;;;;;;24.67;4.07;;;;;;;;;;4991105;28;100306;-78
2023/03/31 02:47:54;;;;;;;24.40;4.50;;;;;;;;;;4997704;28;99309;-77
2023/03/31 02:50:23;;;;;;;19.92;3.67;;;;;;;;;;4980495;28;103438;-78
2023/03/31 02:53:01;;;;;;;14.05;3.15;;;;;;;;;;4991148;28;100626;-78
2023/03/31 02:55:37;;;;;;;19.05;3.97;;;;;;;;;;4992058;28;98550;-77
2023/03/31 02:58:22;;;;;;;13.70;3.40;;;;;;;;;;4972817;28;99357;-77
2023/03/31 03:00:49;;;;;;;16.35;3.35;;;;;;;;;;4977313;28;100589;-77
2023/03/31 03:03:24;;;;;;;14.32;3.13;;;;;;;;;;4989918;28;100198;-77
2023/03/31 03:06:01;;;;;;;15.07;3.55;;;;;;;;;;4986098;28;100105;-77
2023/03/31 03:08:39;;;;;;;19.07;3.90;;;;;;;;;;4989053;28;99842;-77
2023/03/31 03:11:16;;;;;;;14.05;3.47;;;;;;;;;;4977975;28;100659;-77
2023/03/31 03:13:46;;;;;;;13.27;3.17;;;;;;;;;;4984061;28;100557;-77
2023/03/31 03:16:20;;;;;;;15.95;2.80;;;;;;;;;;4974059;28;98600;-78
2023/03/31 03:19:00;;;;;;;16.40;3.28;;;;;;;;;;4989481;28;99208;-77
2023/03/31 03:21:27;;;;;;;12.57;3.00;;;;;;;;;;4987316;28;99554;-77
2023/03/31 03:23:53;;;;;;;14.07;2.25;;;;;;;;;;4990621;28;99901;-78
2023/03/31 03:26:22;;;;;;;13.48;2.78;;;;;;;;;;4972526;28;99092;-77
2023/03/31 03:28:51;;;;;;;11.45;2.22;;;;;;;;;;4984207;28;100520;-77
2023/03/31 03:31:18;;;;;;;20.40;3.13;;;;;;;;;;4991047;28;97868;-77
2023/03/31 03:33:45;;;;;;;16.23;2.67;;;;;;;;;;4989333;28;100105;-77
2023/03/31 03:36:11;;;;;;;12.80;2.33;;;;;;;;;;4989788;28;98857;-77
2023/03/31 03:38:38;;;;;;;12.13;2.30;;;;;;;;;;4984290;28;100167;-77
2023/03/31 03:41:04;;;;;;;19.92;3.28;;;;;;;;;;4982311;28;100383;-77
2023/03/31 03:43:30;;;;;;;21.05;2.85;;;;;;;;;;4988855;28;100047;-77
2023/03/31 03:45:57;;;;;;;17.55;3.35;;;;;;;;;;4982699;28;100062;-78
2023/03/31 03:48:23;;;;;;;19.58;2.95;;;;;;;;;;4978162;28;100558;-77
2023/03/31 03:50:51;;;;;;;13.65;2.53;;;;;;;;;;4991042;28;98531;-78
2023/03/31 03:53:17;;;;;;;18.58;3.20;;;;;;;;;;4990895;28;101282;-79
2023/03/31 03:55:44;;;;;;;13.85;2.72;;;;;;;;;;4984176;28;98154;-80
2023/03/31 03:58:10;;;;;;;8.02;2.20;;;;;;;;;;4989040;28;100079;-77
2023/03/31 04:00:37;;;;;;;11.85;2.42;;;;;;;;;;4989063;28;102509;-77
2023/03/31 04:03:03;;;;;;;12.30;2.95;;;;;;;;;;4975198;28;99351;-78
2023/03/31 04:05:30;;;;;;;11.95;2.33;;;;;;;;;;4974086;28;99875;-78
2023/03/31 04:07:56;;;;;;;7.30;2.15;;;;;;;;;;4974656;28;99501;-78
2023/03/31 04:10:22;;;;;;;14.65;2.25;;;;;;;;;;4981729;28;98780;-77
2023/03/31 04:12:49;;;;;;;12.70;2.00;;;;;;;;;;4987946;28;99286;-78
2023/03/31 04:15:15;;;;;;;15.05;2.35;;;;;;;;;;4981007;28;101078;-77
2023/03/31 04:17:49;;;;;;;9.48;1.85;;;;;;;;;;4986453;28;100697;-78
2023/03/31 04:20:16;;;;;;;11.88;1.95;;;;;;;;;;4986925;28;98399;-77
2023/03/31 04:22:45;;;;;;;11.75;2.15;;;;;;;;;;4974425;28;99080;-78
2023/03/31 04:25:16;;;;;;;7.10;1.75;;;;;;;;;;4988763;28;98934;-78
2023/03/31 04:27:49;;;;;;;17.65;2.30;;;;;;;;;;4988787;28;100361;-79
2023/03/31 04:30:21;;;;;;;6.97;1.80;;;;;;;;;;4980957;28;98558;-78
2023/03/31 04:32:52;;;;;;;14.95;2.55;;;;;;;;;;4985008;28;101906;-78
2023/03/31 04:35:19;;;;;;;;;;;;;;;;;;4984706;28;99421;-78
2023/03/31 04:37:51;;;;;;;16.02;2.10;;;;;;;;;;4993487;28;119139;-78
2023/03/31 04:40:17;;;;;;;13.23;2.70;;;;;;;;;;4989554;28;100605;-77
2023/03/31 04:42:44;;;;;;;9.38;2.42;;;;;;;;;;4986617;28;98520;-78
2023/03/31 04:45:11;;;;;;;11.60;2.13;;;;;;;;;;4984995;28;100332;-78
2023/03/31 04:47:37;;;;;;;12.13;2.67;;;;;;;;;;4988524;28;98906;-77
2023/03/31 04:50:04;;;;;;;17.17;3.00;;;;;;;;;;4983478;28;98690;-77
2023/03/31 04:52:30;;;;;;;13.23;3.05;;;;;;;;;;4970345;28;99535;-77
2023/03/31 04:54:56;;;;;;;13.70;2.95;;;;;;;;;;4976307;28;100611;-77
2023/03/31 04:57:23;;;;;;;16.52;3.47;;;;;;;;;;4977335;28;98772;-77
2023/03/31 04:59:49;;;;;;;12.00;3.28;;;;;;;;;;4974885;28;100875;-77
2023/03/31 05:02:22;;;;;;;11.85;3.00;;;;;;;;;;4974258;28;99026;-78
2023/03/31 05:04:51;;;;;;;18.17;3.28;;;;;;;;;;4984348;28;99338;-77
2023/03/31 05:07:18;;;;;;;15.73;3.35;;;;;;;;;;4975849;28;100110;-78
2023/03/31 05:09:45;;;;;;;14.30;3.28;;;;;;;;;;4989257;28;98058;-78
2023/03/31 05:12:11;;;;;;;15.73;3.35;;;;;;;;;;4981278;28;99517;-78
2023/03/31 05:14:38;;;;;;;12.25;2.80;;;;;;;;;;4976948;28;99642;-78
2023/03/31 05:17:04;;;;;;;11.70;2.78;;;;;;;;;;4981289;28;99281;-78
2023/03/31 05:19:30;;;;;;;7.93;2.47;;;;;;;;;;4991845;28;101393;-78
2023/03/31 05:21:57;;;;;;;14.15;3.05;;;;;;;;;;4982724;28;98701;-78
2023/03/31 05:24:23;;;;;;;11.70;2.63;;;;;;;;;;4988260;28;99208;-77
2023/03/31 05:26:51;;;;;;;11.32;2.78;;;;;;;;;;4988281;28;99653;-76
2023/03/31 05:29:18;;;;;;;12.85;2.92;;;;;;;;;;4973701;28;98713;-79
2023/03/31 05:31:44;;;;;;;8.20;1.98;;;;;;;;;;4977602;28;100596;-79
2023/03/31 05:34:11;;;;;;;12.57;2.45;;;;;;;;;;4984661;28;99252;-79
2023/03/31 05:36:37;;;;;;;12.52;2.95;;;;;;;;;;4990143;28;98546;-78
2023/03/31 05:39:04;;;;;;;14.55;2.97;;;;;;;;;;4999055;28;99192;-78
2023/03/31 05:41:30;;;;;;;14.07;2.42;;;;;;;;;;4981674;28;100335;-79
2023/03/31 05:43:57;;;;;;;9.68;2.13;;;;;;;;;;4987243;28;101129;-78
2023/03/31 05:46:24;;;;;;;10.95;2.50;;;;;;;;;;4991772;28;100813;-78
2023/03/31 05:48:50;;;;;;;22.75;2.25;;;;;;;;;;4990509;28;98609;-79
2023/03/31 05:51:16;;;;;;;15.07;2.60;;;;;;;;;;4984311;28;99176;-79
2023/03/31 05:53:43;;;;;;;9.90;2.17;;;;;;;;;;4983246;28;99646;-79
2023/03/31 05:56:11;;;;;;;12.13;2.10;;;;;;;;;;4984976;28;98619;-79
2023/03/31 05:58:37;;;;;;;11.07;2.10;;;;;;;;;;4983550;28;100233;-79
2023/03/31 06:01:08;;;;;;;11.35;2.55;;;;;;;;;;4985615;28;99469;-80
2023/03/31 06:03:36;;;;;;;10.45;2.35;;;;;;;;;;4989486;28;98511;-81
2023/03/31 06:06:04;;;;;;;12.15;2.80;;;;;;;;;;4982691;28;101584;-84
2023/03/31 06:08:31;;;;;;;6.85;1.98;;;;;;;;;;4988483;28;98544;-79
2023/03/31 06:10:57;;;;;;;9.18;2.03;;;;;;;;;;4990852;28;99431;-81
2023/03/31 06:13:24;;;;;;;7.38;1.85;;;;;;;;;;4989911;28;100663;-80
2023/03/31 06:15:57;;;;;;;12.30;2.00;;;;;;;;;;4980030;28;98571;-83
2023/03/31 06:18:25;;;;;;;16.05;2.28;;;;;;;;;;4977795;28;100305;-81
2023/03/31 06:20:51;;;;;;;10.82;2.53;;;;;;;;;;4990758;28;100515;-79
2023/03/31 06:23:18;;;;;;;9.57;2.00;;;;;;;;;;4985241;28;97827;-81
2023/03/31 06:25:44;;;;;;;5.07;1.50;;;;;;;;;;4980136;28;102021;-76
2023/03/31 06:28:17;;;;;;;5.18;1.67;;;;;;;;;;4982058;28;100233;-77
2023/03/31 06:30:43;;;;;;;11.27;2.28;;;;;;;;;;4975422;28;100662;-76
2023/03/31 06:33:10;;;;;;;7.60;1.45;;;;;;;;;;4971687;28;99923;-77
2023/03/31 06:35:37;;;;;;;7.45;1.80;;;;;;;;;;4971886;28;98550;-77
2023/03/31 06:38:04;;;;;;;7.38;1.80;;;;;;;;;;4972224;28;102180;-77
2023/03/31 06:40:30;;;;;;;7.72;1.60;;;;;;;;;;4971314;28;99496;-76
2023/03/31 06:42:57;;;;;;;6.05;1.60;;;;;;;;;;4972221;28;98464;-77
2023/03/31 06:45:23;;;;;;;7.38;1.40;;;;;;;;;;4973529;28;99340;-77
2023/03/31 06:47:49;;;;;;;7.75;2.00;;;;;;;;;;4990922;28;98821;-78
2023/03/31 06:50:16;;;;;;;6.68;1.90;;;;;;;;;;4992130;28;99471;-77
2023/03/31 06:52:42;;;;;;;6.72;1.50;;;;;;;;;;4990444;28;100269;-77
2023/03/31 06:55:09;;;;;;;4.85;1.55;;;;;;;;;;4987947;28;99337;-77
2023/03/31 06:57:36;;;;;;;12.00;1.55;;;;;;;;;;4976371;28;99888;-77
2023/03/31 07:00:03;;;;;;;9.68;1.98;;;;;;;;;;4978183;28;99847;-79
2023/03/31 07:02:29;;;;;;;8.10;1.58;;;;;;;;;;4971594;28;98542;-77
2023/03/31 07:04:56;;;;;;;5.32;1.35;;;;;;;;;;4983651;28;99157;-76
2023/03/31 07:07:22;;;;;;;2.88;0.60;;;;;;;;;;4994346;28;99471;-78
2023/03/31 07:09:49;;;;;;;5.97;1.02;;;;;;;;;;4987561;28;99949;-76
2023/03/31 07:12:15;;;;;;;9.05;1.30;;;;;;;;;;4988720;28;99688;-77
2023/03/31 07:14:42;;;;;;;6.63;1.33;;;;;;;;;;4978518;28;98558;-83
2023/03/31 07:17:09;;;;;;;7.45;1.17;;;;;;;;;;4982157;28;99877;-78
2023/03/31 07:19:36;;;;;;;7.95;1.40;;;;;;;;;;4990668;28;100076;-77
2023/03/31 07:22:04;;;;;;;7.53;1.33;;;;;;;;;;4986993;28;98652;-79
2023/03/31 07:24:31;;;;;;;7.85;1.40;;;;;;;;;;4985653;28;99163;-79
2023/03/31 07:26:57;;;;;;;14.05;1.45;;;;;;;;;;4990475;28;99490;-78
2023/03/31 07:29:23;;;;;;;8.52;1.60;;;;;;;;;;4993096;28;98509;-80
2023/03/31 07:31:51;;;;;;;8.30;1.50;;;;;;;;;;4981547;28;100468;-78
2023/03/31 07:34:17;;;;;;;6.15;1.15;;;;;;;;;;4989807;28;99432;-76
2023/03/31 07:36:43;;;;;;;3.85;1.30;;;;;;;;;;4989788;28;100536;-77
2023/03/31 07:39:10;;;;;;;4.75;1.40;;;;;;;;;;4987384;28;99657;-77
2023/03/31 07:41:36;;;;;;;6.00;1.38;;;;;;;;;;4984725;28;99946;-77
2023/03/31 07:44:03;;;;;;;5.85;1.70;;;;;;;;;;4983418;28;100283;-76
2023/03/31 07:46:29;;;;;;;8.57;1.90;;;;;;;;;;4981252;28;100907;-77
2023/03/31 07:48:57;;;;;;;5.03;1.42;;;;;;;;;;4987887;28;98514;-78
2023/03/31 07:51:24;;;;;;;12.00;1.50;;;;;;;;;;4993641;28;98736;-79
2023/03/31 07:53:51;;;;;;;12.48;1.65;;;;;;;;;;4976007;28;98610;-79
2023/03/31 07:56:20;;;;;;;3.80;1.38;;;;;;;;;;4990352;28;99645;-79
2023/03/31 07:58:46;;;;;;;7.35;1.63;;;;;;;;;;4977451;28;103883;-80
2023/03/31 08:01:16;;;;;;;8.93;1.85;;;;;;;;;;4970546;28;97782;-79
2023/03/31 08:03:43;;;;;;;8.18;1.77;;;;;;;;;;4971156;28;99799;-80
2023/03/31 08:06:10;;;;;;;4.80;1.10;;;;;;;;;;4970870;28;100284;-80
2023/03/31 08:08:41;;;;;;;4.30;1.40;;;;;;;;;;5004095;28;99275;-80
2023/03/31 08:11:08;;;;;;;7.47;1.48;;;;;;;;;;4990147;28;100661;-84
2023/03/31 08:13:35;;;;;;;7.75;1.40;;;;;;;;;;4993609;28;99497;-79
2023/03/31 08:16:01;;;;;;;11.50;2.47;;;;;;;;;;4990193;28;100396;-79
2023/03/31 08:18:28;;;;;;;4.18;1.38;;;;;;;;;;4976427;28;100557;-79
2023/03/31 08:20:54;;;;;;;9.88;1.98;;;;;;;;;;4987817;28;98623;-79
2023/03/31 08:23:20;;;;;;;5.18;1.58;;;;;;;;;;4984063;28;99469;-78
2023/03/31 08:25:47;;;;;;;9.70;1.85;;;;;;;;;;4973236;28;100387;-79
2023/03/31 08:28:13;;;;;;;8.68;2.20;;;;;;;;;;4971061;28;98725;-80
2023/03/31 08:30:40;;;;;;;11.68;2.40;;;;;;;;;;4987863;28;100579;-78
2023/03/31 08:33:07;;;;;;;11.27;2.40;;;;;;;;;;4988977;28;101310;-79
2023/03/31 08:35:34;;;;;;;12.60;2.80;;;;;;;;;;4990826;28;98928;-79
2023/03/31 08:38:00;;;;;;;17.85;3.08;;;;;;;;;;4986810;28;100477;-79
2023/03/31 08:40:28;;;;;;;9.98;2.35;;;;;;;;;;4988682;28;98613;-79
2023/03/31 08:42:57;;;;;;;10.32;2.58;;;;;;;;;;4990281;28;100300;-79
2023/03/31 08:45:23;;;;;;;16.80;3.22;;;;;;;;;;4986651;28;102578;-78
2023/03/31 08:47:59;;;;;;;15.90;3.08;;;;;;;;;;4982800;28;98543;-79
2023/03/31 08:50:28;;;;;;;16.23;3.35;;;;;;;;;;4983408;28;99573;-79
2023/03/31 08:53:05;;;;;;;19.85;3.55;;;;;;;;;;4969746;28;100582;-79
2023/03/31 08:55:47;;;;;;;14.82;2.92;;;;;;;;;;4998237;28;100376;-79
2023/03/31 08:58:24;;;;;;;14.48;3.65;;;;;;;;;;4987171;28;100244;-79
2023/03/31 09:00:56;;;;;;;23.50;3.67;;;;;;;;;;4970894;28;98640;-79
2023/03/31 09:03:30;;;;;;;21.10;3.92;;;;;;;;;;4990051;28;99382;-79
2023/03/31 09:06:01;;;;;;;27.15;4.03;;;;;;;;;;4983277;28;100665;-79
2023/03/31 09:08:33;;;;;;;15.25;3.42;;;;;;;;;;4993773;28;99045;-79
2023/03/31 09:11:08;;;;;;;13.63;3.35;;;;;;;;;;4992710;28;100127;-78
2023/03/31 09:13:34;;;;;;;20.70;3.95;;;;;;;;;;4986160;28;99774;-79
2023/03/31 09:16:12;;;;;;;29.15;5.72;;;;;;;;;;4979509;28;97950;-80
2023/03/31 09:18:45;;;;;;;20.65;4.10;;;;;;;;;;4981985;28;98515;-78
2023/03/31 09:21:24;;;;;;;29.83;4.72;;;;;;;;;;4993020;28;98615;-78
2023/03/31 09:24:09;;;;;;;22.67;3.65;;;;;;;;;;4990063;28;99271;-78
2023/03/31 09:26:36;;;;;;;26.00;3.90;;;;;;;;;;4990661;28;99527;-78
2023/03/31 09:29:06;;;;;;;26.08;4.50;;;;;;;;;;4993144;28;98589;-79
2023/03/31 09:31:32;;;;;;;25.70;3.83;;;;;;;;;;4993243;28;100406;-78
2023/03/31 09:34:00;;;;;;;30.83;4.43;;;;;;;;;;4990925;28;100062;-78
2023/03/31 09:36:27;;;;;;;21.65;4.28;;;;;;;;;;4990104;28;98555;-78
2023/03/31 09:38:54;;;;;;;27.75;4.45;;;;;;;;;;4973113;28;99684;-78
2023/03/31 09:41:20;;;;;;;29.42;4.72;;;;;;;;;;4976428;28;99075;-79
2023/03/31 09:43:48;;;;;;;28.08;4.10;;;;;;;;;;4973769;28;99522;-78
2023/03/31 09:46:16;;;;;;;25.08;3.97;;;;;;;;;;4984952;28;99221;-78
2023/03/31 09:48:49;;;;;;;22.65;5.10;;;;;;;;;;4991582;28;99237;-79
2023/03/31 09:51:17;;;;;;;15.13;3.75;;;;;;;;;;4991921;28;104090;-78
2023/03/31 09:53:57;;;;;;;22.58;4.93;;;;;;;;;;4991450;28;100006;-78
2023/03/31 09:56:47;;;;;;;19.42;4.15;;;;;;;;;;4992575;28;98662;-78
2023/03/31 09:59:16;;;;;;;19.83;4.50;;;;;;;;;;4988647;28;99385;-78
2023/03/31 10:01:46;;;;;;;32.60;4.75;;;;;;;;;;4990710;28;99519;-78
2023/03/31 10:04:19;;;;;;;23.50;2.78;;;;;;;;;;4994696;28;100258;-78
2023/03/31 10:06:46;;;;;;;20.42;4.15;;;;;;;;;;4973715;28;98746;-78
2023/03/31 10:09:12;;;;;;;32.00;3.70;;;;;;;;;;4979574;28;98514;-78
2023/03/31 10:11:50;;;;;;;24.33;4.53;;;;;;;;;;4980232;28;100397;-78
2023/03/31 10:14:16;;;;;;;22.90;4.95;;;;;;;;;;4983139;28;101317;-78
2023/03/31 10:16:45;;;;;;;22.52;4.50;;;;;;;;;;4993223;28;99203;-79
2023/03/31 10:19:17;;;;;;;21.67;3.35;;;;;;;;;;4990805;28;100421;-78
2023/03/31 10:21:53;;;;;;;23.50;4.07;;;;;;;;;;4990986;28;99443;-78
2023/03/31 10:24:20;;;;;;;18.38;3.80;;;;;;;;;;4986825;28;98860;-78
2023/03/31 10:26:51;;;;;;;17.60;2.78;;;;;;;;;;4990670;28;99241;-78
2023/03/31 10:29:31;;;;;;;15.25;3.25;;;;;;;;;;4994194;28;98532;-78
2023/03/31 10:32:02;;;;;;;19.53;4.07;;;;;;;;;;4993852;28;99408;-78
2023/03/31 10:34:29;;;;;;;24.75;2.97;;;;;;;;;;4993836;28;103302;-78
2023/03/31 10:36:55;;;;;;;21.23;4.50;;;;;;;;;;4986726;28;98696;-79
2023/03/31 10:39:24;;;;;;;14.60;3.38;;;;;;;;;;5028442;28;99502;-79
2023/03/31 10:41:51;;;;;;;19.38;3.00;;;;;;;;;;5013678;28;99112;-79
2023/03/31 10:44:31;;;;;;;19.73;3.67;;;;;;;;;;5013936;28;97910;-79
2023/03/31 10:47:03;;;;;;;18.17;2.93;;;;;;;;;;5010563;28;99122;-79
2023/03/31 10:49:35;;;;;;;20.67;3.22;;;;;;;;;;5018758;28;99550;-79
2023/03/31 10:52:02;;;;;;;20.67;3.35;;;;;;;;;;5000037;28;98380;-79
2023/03/31 10:54:29;;;;;;;19.42;4.10;;;;;;;;;;5014398;28;99762;-79
2023/03/31 10:57:02;;;;;;;17.40;2.90;;;;;;;;;;5015974;28;97690;-79
2023/03/31 10:59:28;;;;;;;25.25;5.28;;;;;;;;;;5016479;28;98950;-78
2023/03/31 11:01:55;;;;;;;21.25;3.53;;;;;;;;;;4996100;28;98518;-78
2023/03/31 11:04:37;;;;;;;17.48;3.22;;;;;;;;;;5010354;28;99203;-79
2023/03/31 11:07:03;;;;;;;18.70;3.20;;;;;;;;;;5015932;28;100693;-78
2023/03/31 11:09:51;;;;;;;20.92;3.97;;;;;;;;;;5002231;28;98442;-78
2023/03/31 11:12:23;;;;;;;13.30;2.88;;;;;;;;;;4976280;28;98569;-78
2023/03/31 11:14:49;;;;;;;15.55;2.33;;;;;;;;;;4992722;28;99632;-78
2023/03/31 11:17:22;;;;;;;22.70;3.38;;;;;;;;;;4992522;28;98745;-78
2023/03/31 11:20:14;;;;;;;15.93;3.33;;;;;;;;;;4977008;28;102682;-78
2023/03/31 11:22:55;;;;;;;13.15;2.67;;;;;;;;;;4991254;28;99980;-78
2023/03/31 11:25:36;;;;;;;16.15;3.53;;;;;;;;;;4985538;28;98499;-78
2023/03/31 11:28:15;;;;;;;22.33;3.28;;;;;;;;;;4991512;28;100160;-78
2023/03/31 11:30:47;;;;;;;14.40;2.67;;;;;;;;;;4989891;28;101283;-77
2023/03/31 11:33:34;;;;;;;16.25;2.88;;;;;;;;;;4994150;28;98704;-78
2023/03/31 11:36:20;;;;;;;21.95;3.90;;;;;;;;;;4984355;28;99629;-78
2023/03/31 11:39:00;;;;;;;20.65;3.42;;;;;;;;;;4989160;28;100193;-78
2023/03/31 11:41:46;;;;;;;19.40;3.55;;;;;;;;;;4990077;28;99231;-78
2023/03/31 11:44:14;;;;;;;15.38;2.95;;;;;;;;;;4969636;28;99639;-78
2023/03/31 11:46:47;;;;;;;21.88;3.63;;;;;;;;;;4982128;28;98646;-79
2023/03/31 11:49:13;;;;;;;16.45;3.25;;;;;;;;;;4991947;28;100933;-78
2023/03/31 11:51:52;;;;;;;13.57;2.95;;;;;;;;;;4988731;28;99489;-78
2023/03/31 11:54:36;;;;;;;16.88;3.20;;;;;;;;;;4989602;28;98615;-79
2023/03/31 11:57:18;;;;;;;19.02;3.83;;;;;;;;;;4990662;28;99400;-78
2023/03/31 11:59:48;;;;;;;17.25;3.70;;;;;;;;;;4989671;28;98618;-78
2023/03/31 12:02:17;;;;;;;19.03;3.47;;;;;;;;;;5005046;28;100340;-78
2023/03/31 12:04:46;;;;;;;20.70;3.95;;;;;;;;;;4990360;28;99639;-81
2023/03/31 12:07:18;;;;;;;17.45;3.28;;;;;;;;;;4989344;28;98566;-78
2023/03/31 12:10:20;;;;;;;24.38;3.63;;;;;;;;;;4983293;28;98982;-79
2023/03/31 12:13:04;;;;;;;22.10;3.38;;;;;;;;;;4919984;28;100845;-78
2023/03/31 12:15:37;;;;;;;20.92;4.38;;;;;;;;;;4948518;28;98452;-77
2023/03/31 12:18:14;;;;;;;18.60;3.22;;;;;;;;;;4947362;28;99794;-78
2023/03/31 12:20:44;;;;;;;15.45;3.15;;;;;;;;;;4951659;28;100501;-78
2023/03/31 12:23:16;;;;;;;15.98;2.88;;;;;;;;;;4944865;28;99360;-79
2023/03/31 12:25:56;;;;;;;15.93;3.25;;;;;;;;;;4947749;28;99530;-78
2023/03/31 12:28:23;;;;;;;17.65;2.92;;;;;;;;;;4936490;28;99269;-78
2023/03/31 12:30:49;;;;;;;18.23;3.75;;;;;;;;;;4928884;28;99281;-77
2023/03/31 12:33:25;;;;;;;12.27;2.80;;;;;;;;;;4928559;28;100288;-78
2023/03/31 12:36:13;;;;;;;15.68;3.00;;;;;;;;;;4935944;28;99037;-78
2023/03/31 12:38:39;;;;;;;14.40;3.08;;;;;;;;;;4935618;28;100438;-79
2023/03/31 12:41:06;;;;;;;16.73;3.00;;;;;;;;;;4946175;28;98567;-79
2023/03/31 12:43:53;;;;;;;22.25;3.53;;;;;;;;;;4916473;28;98569;-78
2023/03/31 12:46:20;;;;;;;16.05;2.60;;;;;;;;;;4942226;28;101456;-79
2023/03/31 12:48:49;;;;;;;22.95;3.58;;;;;;;;;;4987636;28;99434;-78
2023/03/31 12:51:21;;;;;;;24.25;5.00;;;;;;;;;;4974347;28;101197;-78
2023/03/31 12:54:00;;;;;;;20.13;3.28;;;;;;;;;;4989591;28;100762;-77
2023/03/31 12:56:27;;;;;;;18.38;3.15;;;;;;;;;;4984157;28;98720;-78
2023/03/31 12:58:53;;;;;;;23.90;3.30;;;;;;;;;;4971120;28;99027;-78
2023/03/31 13:01:20;;;;;;;18.02;3.40;;;;;;;;;;4985215;28;99918;-77
2023/03/31 13:04:06;;;;;;;16.88;2.63;;;;;;;;;;4988945;28;98562;-77
2023/03/31 13:06:32;;;;;;;19.33;3.30;;;;;;;;;;4975019;28;100356;-78
2023/03/31 13:09:10;;;;;;;20.88;3.40;;;;;;;;;;4985478;28;99466;-79
2023/03/31 13:11:38;;;;;;;22.88;3.90;;;;;;;;;;4988149;28;101901;-78
2023/03/31 13:14:19;;;;;;;13.82;3.20;;;;;;;;;;4988135;28;100216;-77
2023/03/31 13:16:46;;;;;;;14.90;3.33;;;;;;;;;;4986951;28;98569;-78
2023/03/31 13:19:26;;;;;;;17.95;4.00;;;;;;;;;;4989100;28;100363;-77
2023/03/31 13:21:54;;;;;;;22.48;5.72;;;;;;;;;;4980257;28;102604;-78
2023/03/31 13:24:22;;;;;;;20.95;4.38;;;;;;;;;;4988369;28;100681;-78
2023/03/31 13:26:49;;;;;;;14.00;4.72;;;;;;;;;;4990087;28;100452;-79
2023/03/31 13:29:20;;;;;;;18.02;4.40;;;;;;;;;;4968608;28;98600;-77
2023/03/31 13:31:59;;;;;;;9.13;2.47;;;;;;;;;;4974678;28;103233;-78
2023/03/31 13:34:39;;;;;;;14.30;2.75;;;;;;;;;;4998921;28;99477;-78
2023/03/31 13:37:11;;;;;;;8.93;2.83;;;;;;;;;;4977663;28;99234;-77
2023/03/31 13:39:46;;;;;;;13.98;3.13;;;;;;;;;;4986138;28;100197;-78
2023/03/31 13:42:21;;;;;;;18.45;3.67;;;;;;;;;;4980580;28;99492;-75
2023/03/31 13:44:54;;;;;;;11.68;2.75;;;;;;;;;;4988391;28;98544;-76
2023/03/31 13:47:23;;;;;;;16.98;3.30;;;;;;;;;;4987649;28;102107;-77
2023/03/31 13:49:50;;;;;;;13.35;2.75;;;;;;;;;;4991227;28;100254;-78
2023/03/31 13:52:39;;;;;;;19.23;3.78;;;;;;;;;;4990630;28;100539;-78
2023/03/31 13:55:24;;;;;;;16.58;3.22;;;;;;;;;;4973234;28;99511;-79
2023/03/31 13:58:10;;;;;;;16.98;3.22;;;;;;;;;;4993078;28;97839;-79
2023/03/31 14:00:56;;;;;;;18.85;3.13;;;;;;;;;;4992728;28;98570;-78
2023/03/31 14:03:28;;;;;;;11.20;2.65;;;;;;;;;;4990702;28;100713;-79
2023/03/31 14:06:05;;;;;;;16.98;2.92;;;;;;;;;;4980254;28;101165;-79
2023/03/31 14:08:38;;;;;;;15.13;2.75;;;;;;;;;;4986565;28;101357;-78
2023/03/31 14:11:16;;;;;;;15.20;2.30;;;;;;;;;;4992239;28;99803;-79
2023/03/31 14:13:43;;;;;;;10.80;2.50;;;;;;;;;;4994964;28;98651;-79
2023/03/31 14:16:09;;;;;;;13.35;3.00;;;;;;;;;;4988210;28;99012;-79
2023/03/31 14:18:40;;;;;;;14.82;3.05;;;;;;;;;;4971442;28;98681;-78
2023/03/31 14:21:06;;;;;;;;;;;;;;;;;;4978293;28;103260;-77
2023/03/31 14:23:39;;;;;;;5.65;1.73;;;;;;;;;;4991179;28;130113;-78
2023/03/31 14:26:08;;;;;;;12.73;2.08;;;;;;;;;;4978741;28;98832;-78
2023/03/31 14:28:46;;;;;;;9.67;2.40;;;;;;;;;;4977992;28;99490;-79
2023/03/31 14:31:19;;;;;;;14.07;2.65;;;;;;;;;;4991007;28;100321;-79
2023/03/31 14:34:05;;;;;;;12.30;2.60;;;;;;;;;;4992271;28;98535;-78
2023/03/31 14:36:37;;;;;;;12.48;2.47;;;;;;;;;;4977780;28;99142;-78
2023/03/31 14:39:05;;;;;;;8.52;1.90;;;;;;;;;;4971958;28;98524;-79
2023/03/31 14:41:32;;;;;;;7.25;2.03;;;;;;;;;;4984569;28;99146;-78
2023/03/31 14:44:03;;;;;;;7.57;2.00;;;;;;;;;;4990343;28;99198;-79
2023/03/31 14:46:33;;;;;;;8.80;2.45;;;;;;;;;;4988256;28;100181;-79
2023/03/31 14:49:05;;;;;;;7.27;1.83;;;;;;;;;;4992856;28;100440;-79